createdAt,value
2023-01-18T00:01:12.870Z,12.33
2023-01-18T00:03:39.806Z,12.90
2023-01-18T00:06:08.690Z,13.67
2023-01-18T00:08:36.739Z,14.37
2023-01-18T00:11:08.958Z,13.90
2023-01-18T00:13:36.055Z,13.23
2023-01-18T00:16:04.681Z,12.47
2023-01-18T00:18:31.530Z,13.20
2023-01-18T00:21:05.724Z,12.83
2023-01-18T00:23:32.699Z,11.50
2023-01-18T00:26:07.670Z,12.43
2023-01-18T00:28:34.489Z,13.37
2023-01-18T00:31:01.281Z,12.80
2023-01-18T00:33:27.946Z,12.40
2023-01-18T00:35:58.449Z,11.77
2023-01-18T00:38:25.602Z,11.03
2023-01-18T00:40:52.327Z,11.73
2023-01-18T00:43:38.320Z,11.67
2023-01-18T00:46:07.883Z,11.90
2023-01-18T00:48:35.214Z,12.00
2023-01-18T00:51:01.865Z,12.27
2023-01-18T00:53:29.217Z,11.63
2023-01-18T00:55:55.879Z,12.70
2023-01-18T00:58:22.538Z,11.53
2023-01-18T01:00:51.960Z,11.63
2023-01-18T01:03:19.678Z,12.60
2023-01-18T01:06:05.392Z,12.90
2023-01-18T01:08:32.399Z,12.87
2023-01-18T01:11:10.225Z,12.93
2023-01-18T01:13:55.831Z,12.53
2023-01-18T01:16:41.920Z,11.37
2023-01-18T01:19:27.268Z,13.00
2023-01-18T01:22:12.665Z,11.43
2023-01-18T01:24:57.790Z,11.53
2023-01-18T01:27:24.405Z,10.70
2023-01-18T01:29:52.615Z,11.33
2023-01-18T01:32:19.313Z,11.20
2023-01-18T01:34:46.479Z,11.43
2023-01-18T01:37:13.024Z,10.37
2023-01-18T01:39:39.592Z,11.13
2023-01-18T01:42:06.083Z,10.67
2023-01-18T01:44:34.520Z,11.07
2023-01-18T01:47:10.988Z,11.10
2023-01-18T01:49:49.762Z,11.83
2023-01-18T01:52:23.529Z,10.87
2023-01-18T01:55:24.328Z,10.97
2023-01-18T01:57:56.963Z,10.63
2023-01-18T02:00:27.094Z,9.93
2023-01-18T02:03:01.784Z,10.73
2023-01-18T02:05:30.097Z,10.50
2023-01-18T02:07:59.939Z,10.53
2023-01-18T02:10:27.237Z,10.10
2023-01-18T02:12:55.162Z,10.60
2023-01-18T02:15:23.602Z,10.60
2023-01-18T02:18:10.530Z,10.90
2023-01-18T02:21:14.597Z,11.40
2023-01-18T02:24:06.171Z,10.10
2023-01-18T02:27:03.435Z,10.17
2023-01-18T02:29:33.104Z,9.80
2023-01-18T02:32:21.065Z,10.17
2023-01-18T02:35:16.548Z,10.80
2023-01-18T02:38:14.480Z,11.33
2023-01-18T02:41:04.571Z,10.47
2023-01-18T02:43:52.075Z,10.70
2023-01-18T02:46:31.210Z,9.90
2023-01-18T02:48:58.565Z,10.17
2023-01-18T02:51:25.504Z,10.17
2023-01-18T02:53:52.352Z,9.80
2023-01-18T02:56:34.868Z,9.30
2023-01-18T02:59:24.196Z,9.77
2023-01-18T03:01:56.228Z,10.93
2023-01-18T03:04:27.537Z,10.80
2023-01-18T03:07:05.305Z,10.57
2023-01-18T03:09:34.179Z,10.23
2023-01-18T03:12:22.326Z,10.67
2023-01-18T03:15:13.126Z,10.87
2023-01-18T03:17:49.901Z,10.77
2023-01-18T03:20:21.165Z,10.33
2023-01-18T03:23:26.548Z,9.77
2023-01-18T03:25:55.113Z,10.10
2023-01-18T03:29:00.987Z,9.90
2023-01-18T03:32:08.019Z,9.43
2023-01-18T03:34:49.592Z,10.37
2023-01-18T03:37:42.999Z,10.03
2023-01-18T03:40:14.033Z,10.07
2023-01-18T03:42:48.794Z,10.67
2023-01-18T03:45:20.641Z,10.63
2023-01-18T03:47:50.369Z,10.07
2023-01-18T03:50:17.707Z,10.60
2023-01-18T03:52:47.243Z,10.33
2023-01-18T03:55:21.634Z,10.73
2023-01-18T03:57:51.663Z,11.73
2023-01-18T04:00:18.948Z,10.40
2023-01-18T04:02:48.176Z,10.67
2023-01-18T04:05:15.134Z,9.67
2023-01-18T04:07:41.820Z,10.77
2023-01-18T04:10:09.273Z,10.47
2023-01-18T04:12:35.883Z,10.33
2023-01-18T04:15:04.123Z,10.00
2023-01-18T04:17:30.789Z,10.83
2023-01-18T04:19:57.584Z,11.33
2023-01-18T04:22:24.277Z,10.60
2023-01-18T04:24:51.183Z,10.93
2023-01-18T04:27:17.762Z,10.73
2023-01-18T04:29:44.475Z,10.70
2023-01-18T04:32:11.086Z,10.57
2023-01-18T04:34:37.882Z,10.60
2023-01-18T04:37:06.383Z,11.30
2023-01-18T04:39:33.307Z,10.63
2023-01-18T04:41:59.967Z,10.27
2023-01-18T04:44:26.570Z,10.50
2023-01-18T04:46:53.453Z,10.17
2023-01-18T04:49:20.198Z,10.47
2023-01-18T04:51:47.167Z,10.23
2023-01-18T04:54:16.310Z,10.37
2023-01-18T04:56:42.941Z,11.23
2023-01-18T04:59:14.852Z,10.00
2023-01-18T05:01:41.529Z,10.80
2023-01-18T05:04:08.403Z,10.60
2023-01-18T05:06:35.015Z,11.40
2023-01-18T05:09:01.639Z,10.20
2023-01-18T05:11:28.321Z,11.63
2023-01-18T05:13:57.501Z,11.23
2023-01-18T05:16:24.335Z,10.87
2023-01-18T05:18:51.553Z,11.47
2023-01-18T05:21:18.171Z,11.83
2023-01-18T05:23:44.890Z,10.60
2023-01-18T05:26:17.408Z,11.33
2023-01-18T05:28:44.851Z,10.47
2023-01-18T05:31:11.951Z,10.90
2023-01-18T05:33:38.643Z,11.27
2023-01-18T05:36:05.559Z,10.33
2023-01-18T05:38:32.084Z,11.43
2023-01-18T05:40:59.015Z,11.27
2023-01-18T05:43:26.961Z,12.43
2023-01-18T05:45:53.778Z,11.23
2023-01-18T05:48:20.968Z,12.47
2023-01-18T05:50:48.970Z,11.93
2023-01-18T05:53:20.532Z,12.17
2023-01-18T05:55:58.428Z,13.03
2023-01-18T05:58:26.222Z,12.70
2023-01-18T06:00:53.213Z,13.17
2023-01-18T06:03:20.087Z,12.97
2023-01-18T06:05:47.740Z,13.20
2023-01-18T06:08:15.398Z,13.40
2023-01-18T06:10:42.042Z,12.57
2023-01-18T06:13:08.554Z,13.13
2023-01-18T06:15:35.364Z,12.37
2023-01-18T06:18:02.181Z,12.83
2023-01-18T06:20:30.531Z,12.40
2023-01-18T06:22:58.212Z,12.90
2023-01-18T06:25:25.274Z,12.87
2023-01-18T06:27:51.949Z,13.03
2023-01-18T06:30:19.365Z,13.43
2023-01-18T06:32:45.959Z,13.60
2023-01-18T06:35:12.873Z,12.93
2023-01-18T06:37:39.481Z,13.30
2023-01-18T06:40:06.854Z,14.50
2023-01-18T06:42:33.451Z,13.43
2023-01-18T06:45:00.228Z,14.17
2023-01-18T06:47:26.826Z,13.63
2023-01-18T06:49:53.393Z,12.77
2023-01-18T06:52:20.055Z,14.40
2023-01-18T06:54:46.656Z,13.77
2023-01-18T06:57:13.338Z,13.57
2023-01-18T06:59:40.374Z,13.77
2023-01-18T07:02:07.882Z,12.70
2023-01-18T07:04:37.983Z,13.57
2023-01-18T07:07:04.667Z,13.70
2023-01-18T07:09:31.255Z,13.07
2023-01-18T07:11:58.022Z,13.57
2023-01-18T07:14:24.582Z,14.27
2023-01-18T07:16:51.457Z,15.20
2023-01-18T07:19:18.196Z,15.63
2023-01-18T07:21:44.911Z,13.70
2023-01-18T07:24:11.608Z,14.43
2023-01-18T07:26:38.240Z,14.27
2023-01-18T07:29:04.822Z,14.17
2023-01-18T07:31:32.023Z,14.40
2023-01-18T07:33:58.796Z,14.13
2023-01-18T07:36:25.489Z,14.07
2023-01-18T07:38:52.507Z,14.90
2023-01-18T07:41:19.218Z,13.57
2023-01-18T07:43:46.013Z,14.23
2023-01-18T07:46:16.554Z,13.20
2023-01-18T07:48:44.664Z,12.67
2023-01-18T07:51:11.652Z,14.47
2023-01-18T07:53:38.989Z,13.23
2023-01-18T07:56:12.143Z,13.93
2023-01-18T07:58:38.786Z,14.80
2023-01-18T08:01:08.799Z,14.20
2023-01-18T08:03:36.493Z,15.43
2023-01-18T08:06:04.723Z,13.67
2023-01-18T08:08:31.917Z,14.03
2023-01-18T08:11:00.967Z,15.03
2023-01-18T08:13:29.446Z,15.13
2023-01-18T08:15:58.786Z,15.17
2023-01-18T08:18:25.492Z,14.13
2023-01-18T08:20:54.336Z,15.20
2023-01-18T08:23:21.853Z,14.67
2023-01-18T08:25:48.839Z,12.90
2023-01-18T08:28:15.564Z,14.30
2023-01-18T08:30:45.061Z,14.77
2023-01-18T08:33:12.176Z,13.83
2023-01-18T08:35:47.140Z,13.97
2023-01-18T08:38:15.835Z,14.27
2023-01-18T08:40:42.734Z,14.97
2023-01-18T08:43:10.941Z,14.67
2023-01-18T08:45:37.757Z,15.13
2023-01-18T08:48:06.845Z,15.77
2023-01-18T08:50:35.055Z,15.10
2023-01-18T08:53:02.953Z,15.87
2023-01-18T08:55:30.300Z,14.23
2023-01-18T08:57:58.270Z,14.90
2023-01-18T09:00:28.589Z,15.20
2023-01-18T09:02:55.324Z,14.40
2023-01-18T09:05:22.745Z,15.20
2023-01-18T09:07:50.977Z,15.27
2023-01-18T09:10:17.827Z,15.30
2023-01-18T09:12:44.462Z,14.93
2023-01-18T09:15:11.010Z,14.80
2023-01-18T09:17:37.635Z,15.83
2023-01-18T09:20:09.616Z,15.43
2023-01-18T09:22:37.054Z,15.13
2023-01-18T09:25:05.878Z,15.70
2023-01-18T09:27:32.884Z,14.67
2023-01-18T09:29:59.485Z,15.20
2023-01-18T09:32:27.556Z,15.57
2023-01-18T09:34:54.930Z,15.47
2023-01-18T09:37:21.841Z,15.73
2023-01-18T09:39:52.186Z,15.13
2023-01-18T09:42:25.376Z,15.13
2023-01-18T09:44:55.867Z,14.40
2023-01-18T09:47:27.571Z,15.73
2023-01-18T09:50:02.957Z,16.03
2023-01-18T09:52:53.134Z,14.87
2023-01-18T09:55:28.938Z,15.63
2023-01-18T09:58:23.424Z,14.90
2023-01-18T10:00:50.209Z,14.77
2023-01-18T10:03:26.097Z,14.80
2023-01-18T10:06:08.669Z,15.30
2023-01-18T10:08:58.699Z,14.37
2023-01-18T10:11:45.046Z,14.70
2023-01-18T10:14:17.180Z,14.97
2023-01-18T10:16:54.744Z,14.43
2023-01-18T10:19:25.831Z,15.20
2023-01-18T10:22:08.772Z,14.93
2023-01-18T10:24:44.695Z,16.23
2023-01-18T10:27:36.040Z,15.07
2023-01-18T10:30:43.496Z,16.40
2023-01-18T10:33:18.522Z,15.60
2023-01-18T10:35:48.554Z,15.30
2023-01-18T10:38:18.102Z,14.67
2023-01-18T10:40:49.542Z,14.90
2023-01-18T10:43:20.506Z,15.53
2023-01-18T10:45:47.103Z,14.60
2023-01-18T10:48:29.075Z,14.33
2023-01-18T10:51:01.861Z,14.70
2023-01-18T10:53:34.469Z,14.03
2023-01-18T10:56:12.794Z,15.23
2023-01-18T10:59:00.294Z,14.57
2023-01-18T11:01:27.665Z,14.67
2023-01-18T11:04:07.817Z,13.83
2023-01-18T11:06:56.795Z,13.90
2023-01-18T11:09:49.590Z,13.17
2023-01-18T11:12:38.980Z,13.30
2023-01-18T11:15:14.789Z,12.20
2023-01-18T11:17:50.613Z,12.73
2023-01-18T11:20:35.667Z,12.33
2023-01-18T11:23:10.917Z,13.57
2023-01-18T11:25:39.910Z,13.43
2023-01-18T11:28:16.866Z,12.73
2023-01-18T11:30:54.688Z,12.27
2023-01-18T11:33:26.444Z,12.07
2023-01-18T11:35:55.247Z,12.47
2023-01-18T11:38:27.252Z,10.97
2023-01-18T11:41:20.867Z,12.20
2023-01-18T11:44:08.511Z,12.10
2023-01-18T11:46:45.897Z,12.47
2023-01-18T11:49:18.490Z,11.37
2023-01-18T11:51:50.445Z,11.07
2023-01-18T11:54:22.773Z,11.47
2023-01-18T11:56:51.236Z,11.17
2023-01-18T11:59:56.568Z,11.27
2023-01-18T12:02:38.579Z,10.93
2023-01-18T12:05:25.850Z,10.43
2023-01-18T12:08:17.190Z,10.77
2023-01-18T12:10:49.984Z,9.97
2023-01-18T12:13:33.208Z,9.50
2023-01-18T12:16:09.129Z,9.57
2023-01-18T12:18:57.369Z,9.57
2023-01-18T12:21:53.313Z,9.37
2023-01-18T12:24:32.082Z,8.80
2023-01-18T12:27:01.958Z,9.33
2023-01-18T12:29:56.111Z,8.93
2023-01-18T12:32:45.075Z,9.37
2023-01-18T12:35:23.594Z,8.40
2023-01-18T12:37:57.382Z,8.47
2023-01-18T12:40:36.160Z,8.90
2023-01-18T12:43:09.085Z,8.27
2023-01-18T12:45:44.075Z,9.33
2023-01-18T12:48:26.161Z,8.87
2023-01-18T12:50:55.937Z,8.73
2023-01-18T12:53:32.965Z,8.57
2023-01-18T12:56:04.082Z,8.20
2023-01-18T12:58:30.747Z,8.50
2023-01-18T13:00:59.590Z,7.90
2023-01-18T13:03:30.479Z,8.27
2023-01-18T13:06:02.148Z,8.57
2023-01-18T13:08:31.709Z,7.93
2023-01-18T13:11:25.506Z,8.03
2023-01-18T13:13:59.701Z,7.93
2023-01-18T13:17:01.585Z,7.30
2023-01-18T13:19:41.132Z,6.33
2023-01-18T13:22:19.991Z,6.30
2023-01-18T13:24:57.977Z,6.83
2023-01-18T13:27:24.629Z,6.73
2023-01-18T13:29:51.332Z,5.80
2023-01-18T13:32:33.465Z,6.23
2023-01-18T13:35:25.645Z,5.70
2023-01-18T13:37:56.052Z,7.60
2023-01-18T13:40:43.174Z,6.80
2023-01-18T13:43:37.924Z,5.90
2023-01-18T13:46:07.658Z,6.20
2023-01-18T13:48:50.978Z,5.27
2023-01-18T13:51:42.166Z,5.20
2023-01-18T13:54:16.446Z,4.80
2023-01-18T13:57:09.704Z,4.60
2023-01-18T13:59:41.303Z,5.77
2023-01-18T14:02:27.316Z,5.77
2023-01-18T14:05:20.064Z,5.70
2023-01-18T14:07:49.580Z,5.60
2023-01-18T14:10:36.415Z,5.47
2023-01-18T14:13:05.588Z,5.43
2023-01-18T14:15:49.571Z,5.53
2023-01-18T14:18:23.736Z,5.87
2023-01-18T14:21:09.123Z,5.90
2023-01-18T14:23:44.796Z,6.10
2023-01-18T14:26:14.478Z,6.10
2023-01-18T14:28:48.539Z,6.33
2023-01-18T14:31:33.655Z,6.40
2023-01-18T14:34:23.980Z,7.10
2023-01-18T14:36:53.080Z,6.57
2023-01-18T14:39:21.549Z,6.10
2023-01-18T14:41:52.283Z,6.70
2023-01-18T14:44:24.395Z,6.90
2023-01-18T14:46:53.075Z,6.67
2023-01-18T14:49:30.344Z,6.87
2023-01-18T14:51:57.296Z,6.67
2023-01-18T14:54:28.198Z,7.10
2023-01-18T14:57:02.560Z,7.20
2023-01-18T14:59:31.473Z,8.00
2023-01-18T15:02:01.108Z,7.73
2023-01-18T15:04:30.337Z,6.80
2023-01-18T15:07:00.790Z,7.10
2023-01-18T15:09:31.127Z,8.10
2023-01-18T15:12:00.138Z,8.13
2023-01-18T15:14:32.634Z,7.83
2023-01-18T15:17:00.540Z,8.20
2023-01-18T15:19:32.715Z,7.90
2023-01-18T15:22:05.148Z,8.33
2023-01-18T15:24:38.060Z,8.00
2023-01-18T15:27:05.239Z,8.13
2023-01-18T15:29:36.079Z,7.73
2023-01-18T15:32:04.849Z,7.83
2023-01-18T15:34:36.796Z,7.63
2023-01-18T15:37:05.778Z,7.90
2023-01-18T15:39:36.200Z,8.20
2023-01-18T15:42:06.539Z,7.83
2023-01-18T15:44:51.581Z,8.03
2023-01-18T15:47:37.719Z,7.47
2023-01-18T15:50:07.188Z,8.00
2023-01-18T15:52:45.879Z,7.93
2023-01-18T15:55:22.288Z,8.17
2023-01-18T15:58:03.464Z,8.40
2023-01-18T16:00:41.295Z,7.80
2023-01-18T16:03:23.222Z,7.77
2023-01-18T16:06:11.308Z,7.00
2023-01-18T16:08:56.682Z,7.63
2023-01-18T16:11:48.229Z,7.00
2023-01-18T16:14:20.980Z,7.07
2023-01-18T16:16:47.841Z,8.67
2023-01-18T16:19:20.575Z,6.77
2023-01-18T16:21:49.515Z,6.87
2023-01-18T16:24:37.967Z,6.73
2023-01-18T16:27:24.847Z,6.93
2023-01-18T16:29:57.240Z,7.60
2023-01-18T16:32:28.063Z,7.03
2023-01-18T16:34:56.837Z,6.07
2023-01-18T16:37:23.592Z,7.27
2023-01-18T16:39:50.498Z,6.63
2023-01-18T16:42:19.822Z,7.00
2023-01-18T16:44:48.479Z,6.30
2023-01-18T16:47:17.297Z,6.40
2023-01-18T16:49:44.192Z,6.37
2023-01-18T16:52:13.481Z,6.13
2023-01-18T16:54:44.803Z,7.10
2023-01-18T16:57:19.661Z,6.77
2023-01-18T16:59:46.421Z,6.43
2023-01-18T17:02:13.111Z,7.43
2023-01-18T17:04:39.817Z,7.03
2023-01-18T17:07:09.867Z,6.60
2023-01-18T17:09:47.905Z,6.10
2023-01-18T17:12:15.448Z,6.27
2023-01-18T17:14:42.008Z,6.90
2023-01-18T17:17:09.775Z,6.40
2023-01-18T17:19:38.026Z,6.23
2023-01-18T17:22:05.067Z,6.03
2023-01-18T17:24:31.938Z,6.70
2023-01-18T17:26:58.506Z,6.13
2023-01-18T17:29:25.152Z,5.97
2023-01-18T17:31:53.166Z,5.97
2023-01-18T17:34:27.432Z,6.03
2023-01-18T17:36:58.106Z,5.50
2023-01-18T17:39:32.165Z,6.10
2023-01-18T17:42:12.406Z,6.00
2023-01-18T17:44:43.082Z,6.27
2023-01-18T17:47:10.286Z,5.43
2023-01-18T17:49:36.858Z,5.80
2023-01-18T17:52:03.789Z,5.77
2023-01-18T17:54:30.703Z,6.00
2023-01-18T17:56:57.432Z,6.10
2023-01-18T17:59:24.114Z,5.83
2023-01-18T18:01:50.822Z,5.80
2023-01-18T18:04:17.690Z,5.23
2023-01-18T18:06:53.703Z,5.03
2023-01-18T18:09:21.037Z,5.50
2023-01-18T18:11:47.679Z,5.73
2023-01-18T18:14:14.506Z,5.47
2023-01-18T18:16:43.757Z,6.13
2023-01-18T18:19:14.606Z,5.40
2023-01-18T18:21:46.122Z,5.27
2023-01-18T18:24:12.857Z,5.00
2023-01-18T18:26:39.981Z,6.10
2023-01-18T18:29:06.708Z,5.33
2023-01-18T18:31:33.866Z,5.60
2023-01-18T18:34:00.606Z,5.53
2023-01-18T18:36:27.757Z,5.60
2023-01-18T18:38:54.720Z,5.27
2023-01-18T18:41:21.525Z,5.70
2023-01-18T18:43:48.235Z,5.43
2023-01-18T18:46:15.094Z,5.40
2023-01-18T18:48:42.606Z,5.87
2023-01-18T18:51:09.882Z,5.67
2023-01-18T18:53:40.505Z,6.00
2023-01-18T18:56:10.187Z,6.80
2023-01-18T18:58:37.497Z,6.10
2023-01-18T19:01:05.228Z,6.60
2023-01-18T19:03:32.330Z,6.30
2023-01-18T19:05:58.899Z,7.17
2023-01-18T19:08:25.848Z,6.80
2023-01-18T19:10:52.597Z,6.90
2023-01-18T19:13:19.660Z,6.47
2023-01-18T19:15:47.700Z,6.53
2023-01-18T19:18:14.757Z,7.03
2023-01-18T19:20:41.961Z,6.50
2023-01-18T19:23:09.476Z,6.90
2023-01-18T19:25:39.696Z,6.87
2023-01-18T19:28:06.485Z,6.30
2023-01-18T19:30:33.685Z,6.97
2023-01-18T19:33:01.090Z,7.07
2023-01-18T19:35:28.477Z,6.33
2023-01-18T19:37:55.499Z,5.73
2023-01-18T19:40:22.474Z,7.10
2023-01-18T19:42:56.234Z,6.93
2023-01-18T19:45:28.029Z,5.90
2023-01-18T19:47:56.618Z,5.73
2023-01-18T19:50:23.656Z,6.10
2023-01-18T19:52:50.468Z,5.80
2023-01-18T19:55:17.752Z,6.10
2023-01-18T19:57:44.904Z,5.73
2023-01-18T20:00:12.915Z,5.60
2023-01-18T20:02:41.147Z,5.40
2023-01-18T20:05:08.399Z,4.90
2023-01-18T20:07:35.004Z,5.57
2023-01-18T20:10:02.014Z,4.87
2023-01-18T20:12:31.376Z,5.27
2023-01-18T20:14:58.583Z,5.83
2023-01-18T20:17:26.082Z,4.93
2023-01-18T20:19:55.445Z,4.77
2023-01-18T20:22:22.883Z,6.23
2023-01-18T20:24:49.503Z,5.57
2023-01-18T20:27:17.274Z,4.63
2023-01-18T20:29:44.798Z,4.83
2023-01-18T20:32:17.218Z,5.13
2023-01-18T20:34:45.439Z,4.80
2023-01-18T20:37:16.142Z,4.97
2023-01-18T20:39:43.189Z,5.03
2023-01-18T20:42:10.330Z,5.63
2023-01-18T20:44:37.336Z,4.93
2023-01-18T20:47:04.672Z,5.53
2023-01-18T20:49:39.113Z,5.33
2023-01-18T20:52:08.957Z,5.07
2023-01-18T20:54:36.635Z,5.17
2023-01-18T20:57:04.874Z,4.97
2023-01-18T20:59:31.725Z,4.73
2023-01-18T21:02:02.287Z,4.90
2023-01-18T21:04:29.779Z,5.30
2023-01-18T21:07:00.674Z,5.63
2023-01-18T21:09:27.608Z,5.10
2023-01-18T21:11:54.323Z,5.93
2023-01-18T21:14:21.293Z,5.60
2023-01-18T21:16:48.352Z,5.27
2023-01-18T21:19:15.476Z,5.47
2023-01-18T21:21:42.283Z,5.83
2023-01-18T21:24:09.257Z,5.70
2023-01-18T21:26:36.354Z,5.63
2023-01-18T21:29:04.142Z,6.10
2023-01-18T21:31:30.947Z,5.83
2023-01-18T21:33:58.002Z,5.80
2023-01-18T21:36:27.441Z,6.00
2023-01-18T21:38:54.808Z,6.00
2023-01-18T21:41:40.086Z,6.83
2023-01-18T21:44:29.517Z,7.30
2023-01-18T21:46:56.505Z,5.97
2023-01-18T21:50:11.269Z,6.10
2023-01-18T21:52:48.709Z,6.70
2023-01-18T21:55:16.778Z,6.73
2023-01-18T21:57:44.469Z,6.43
2023-01-18T22:00:11.640Z,6.63
2023-01-18T22:02:39.026Z,6.73
2023-01-18T22:05:06.150Z,6.37
2023-01-18T22:07:34.446Z,7.07
2023-01-18T22:10:06.862Z,6.40
2023-01-18T22:12:35.524Z,6.87
2023-01-18T22:15:03.178Z,6.07
2023-01-18T22:17:29.968Z,6.60
2023-01-18T22:19:56.682Z,7.07
2023-01-18T22:22:23.352Z,6.93
2023-01-18T22:24:49.927Z,6.40
2023-01-18T22:27:16.653Z,6.90
2023-01-18T22:29:43.427Z,6.77
2023-01-18T22:32:10.017Z,6.57
2023-01-18T22:34:36.629Z,6.93
2023-01-18T22:37:03.530Z,7.77
2023-01-18T22:39:31.181Z,6.90
2023-01-18T22:41:57.750Z,6.90
2023-01-18T22:44:24.391Z,6.90
2023-01-18T22:46:51.019Z,7.07
2023-01-18T22:49:17.752Z,7.03
2023-01-18T22:51:44.390Z,7.53
2023-01-18T22:54:10.936Z,7.07
2023-01-18T22:56:37.783Z,8.10
2023-01-18T22:59:04.516Z,7.33
2023-01-18T23:01:32.794Z,7.40
2023-01-18T23:04:02.142Z,7.80
2023-01-18T23:06:29.580Z,7.17
2023-01-18T23:08:56.602Z,8.30
2023-01-18T23:11:25.619Z,8.00
2023-01-18T23:14:13.703Z,7.40
2023-01-18T23:17:00.281Z,7.53
2023-01-18T23:19:29.554Z,7.30
2023-01-18T23:21:57.136Z,8.27
2023-01-18T23:24:24.093Z,7.87
2023-01-18T23:26:51.243Z,7.57
2023-01-18T23:29:17.883Z,7.77
2023-01-18T23:31:44.634Z,8.20
2023-01-18T23:34:11.310Z,7.67
2023-01-18T23:36:38.990Z,7.43
2023-01-18T23:39:24.238Z,6.63
2023-01-18T23:42:09.553Z,7.80
2023-01-18T23:44:54.979Z,7.97
2023-01-18T23:47:40.347Z,7.67
2023-01-18T23:50:25.916Z,7.27
2023-01-18T23:53:11.244Z,8.37
2023-01-18T23:55:37.862Z,7.83
2023-01-18T23:58:04.454Z,7.73
